Time;durP1;ratioP1;P1;durP2;ratioP2;P2;SDS_P1;SDS_P2;PMS_P1;PMS_P2;Temp;Humidity;BMP_temperature;BMP_pressure;BME280_temperature;BME280_humidity;BME280_pressure;Samples;Min_cycle;Max_cycle;Signal;HPM_P1;HPM_P2
2022/10/17 00:01:09;;;;;;;17.73;5.88;;;;;;;13.29;46.87;102023.38;4953765;28;20027;-81
2022/10/17 00:03:36;;;;;;;8.98;4.43;;;;;;;13.81;46.60;102098.94;4954345;28;20039;-82
2022/10/17 00:06:11;;;;;;;9.00;4.35;;;;;;;13.53;46.77;102064.88;4954073;29;20026;-81
2022/10/17 00:08:39;;;;;;;9.63;4.93;;;;;;;13.55;46.93;102092.66;4954944;28;20075;-81
2022/10/17 00:11:08;;;;;;;12.23;4.07;;;;;;;13.69;47.06;102121.44;4955203;28;20531;-85
2022/10/17 00:13:34;;;;;;;11.30;4.68;;;;;;;13.62;47.21;102118.31;4959880;28;20098;-92
2022/10/17 00:16:00;;;;;;;13.27;5.40;;;;;;;13.06;47.10;102025.81;4975016;28;20043;-89
2022/10/17 00:18:26;;;;;;;11.10;5.20;;;;;;;13.31;47.77;102061.94;4975984;28;20039;-85
2022/10/17 00:20:52;;;;;;;19.13;5.43;;;;;;;13.59;47.60;102118.50;4963594;29;20439;-81
2022/10/17 00:23:18;;;;;;;13.30;6.60;;;;;;;13.56;47.84;102113.31;4953832;28;20487;-81
2022/10/17 00:25:44;;;;;;;15.48;5.35;;;;;;;13.38;47.61;102084.88;4952945;29;20070;-82
2022/10/17 00:28:13;;;;;;;33.22;8.48;;;;;;;13.59;47.73;102108.56;4952727;29;20073;-82
2022/10/17 00:30:39;;;;;;;11.15;6.13;;;;;;;13.09;47.67;102006.72;4953101;28;20039;-82
2022/10/17 00:33:05;;;;;;;17.58;7.55;;;;;;;13.29;47.23;102023.38;4956830;29;20037;-82
2022/10/17 00:35:30;;;;;;;9.43;5.18;;;;;;;13.72;46.94;102089.66;4961331;28;20083;-87
2022/10/17 00:37:56;;;;;;;27.92;6.03;;;;;;;13.58;47.00;102062.72;4961758;28;20023;-81
2022/10/17 00:40:22;;;;;;;11.98;6.43;;;;;;;13.62;46.83;102057.00;4961995;29;20027;-81
2022/10/17 00:42:50;;;;;;;20.95;6.22;;;;;;;13.88;46.85;102086.72;4960905;29;20027;-81
2022/10/17 00:45:25;;;;;;;12.23;5.47;;;;;;;13.37;46.80;102008.34;4956615;29;20040;-81
2022/10/17 00:47:57;;;;;;;13.80;5.75;;;;;;;13.90;47.37;102077.50;4956070;29;20051;-83
2022/10/17 00:50:23;;;;;;;9.23;5.47;;;;;;;13.38;46.81;101999.28;4956615;29;20042;-82
2022/10/17 00:52:50;;;;;;;24.35;6.35;;;;;;;13.25;46.74;101976.78;4956605;29;20407;-82
2022/10/17 00:55:44;;;;;;;14.13;5.55;;;;;;;13.56;46.77;102045.75;4955249;29;20043;-83
2022/10/17 00:58:10;;;;;;;15.02;5.43;;;;;;;13.34;46.57;102007.69;4916223;29;20051;-82
2022/10/17 01:00:36;;;;;;;21.30;6.07;;;;;;;13.65;47.05;102066.72;4915796;29;20043;-84
2022/10/17 01:03:02;;;;;;;14.98;5.55;;;;;;;13.09;46.96;101971.59;4915552;29;20036;-81
2022/10/17 01:05:28;;;;;;;18.05;6.05;;;;;;;13.59;47.02;102056.34;4915443;29;20130;-84
2022/10/17 01:07:54;;;;;;;12.80;5.68;;;;;;;13.29;46.98;102009.88;4915765;29;20064;-82
2022/10/17 01:10:21;;;;;;;16.58;6.18;;;;;;;13.73;47.17;102102.16;4917645;29;20067;-81
2022/10/17 01:13:09;;;;;;;23.17;6.68;;;;;;;13.72;47.14;102091.47;4905241;29;20047;-80
2022/10/17 01:15:49;;;;;;;18.75;5.28;;;;;;;13.60;47.22;102085.13;4841905;29;20152;-81
2022/10/17 01:18:23;;;;;;;13.63;5.60;;;;;;;13.70;47.22;102088.88;4842029;29;20045;-81
2022/10/17 01:21:16;;;;;;;11.68;4.57;;;;;;;13.74;47.15;102087.69;4842185;29;20046;-82
2022/10/17 01:23:53;;;;;;;12.40;4.78;;;;;;;13.75;46.88;102086.72;4843400;29;20093;-81
2022/10/17 01:26:47;;;;;;;13.52;5.22;;;;;;;13.72;46.84;102086.06;4842280;29;20056;-81
2022/10/17 01:29:15;;;;;;;16.05;5.18;;;;;;;13.68;46.85;102081.84;4855526;29;20090;-87
2022/10/17 01:31:58;;;;;;;10.82;5.45;;;;;;;13.38;46.89;102039.81;4863460;29;20045;-87
2022/10/17 01:34:29;;;;;;;11.93;5.38;;;;;;;13.64;46.97;102087.47;4872015;29;20060;-87
2022/10/17 01:37:20;;;;;;;21.65;6.25;;;;;;;13.27;46.95;102017.22;4877898;29;20092;-83
2022/10/17 01:39:54;;;;;;;24.67;5.85;;;;;;;13.05;46.77;101986.28;4821454;29;20045;-83
2022/10/17 01:42:28;;;;;;;10.88;4.90;;;;;;;13.42;46.73;102053.97;4821960;29;20487;-82
2022/10/17 01:45:12;;;;;;;26.85;6.20;;;;;;;12.99;46.82;101992.13;4822683;29;20700;-81
2022/10/17 01:47:40;;;;;;;16.77;5.30;;;;;;;13.35;46.92;102041.84;4807109;29;20415;-82
2022/10/17 01:50:15;;;;;;;10.82;5.00;;;;;;;13.21;46.78;102023.06;4821938;29;20043;-82
2022/10/17 01:52:46;;;;;;;12.82;4.68;;;;;;;13.47;46.50;102076.13;4862733;29;20075;-82
2022/10/17 01:55:22;;;;;;;7.68;4.95;;;;;;;13.12;47.12;102029.13;4879956;29;20052;-82
2022/10/17 01:57:57;;;;;;;14.00;5.15;;;;;;;13.28;47.06;102062.16;4896227;29;20077;-82
2022/10/17 02:00:25;;;;;;;12.40;5.50;;;;;;;13.38;47.43;102084.88;4895972;29;20100;-81
2022/10/17 02:03:01;;;;;;;11.77;5.53;;;;;;;12.92;47.09;102007.00;4895947;29;20516;-81
2022/10/17 02:05:39;;;;;;;36.30;6.45;;;;;;;13.37;47.22;102100.22;4895623;29;20565;-81
2022/10/17 02:08:05;;;;;;;23.42;5.65;;;;;;;12.88;47.77;102032.50;4895748;29;20552;-81
2022/10/17 02:10:38;;;;;;;13.02;5.53;;;;;;;13.09;47.65;102059.88;4895222;29;20436;-85
2022/10/17 02:13:26;;;;;;;14.93;5.05;;;;;;;12.98;47.44;102057.03;4895808;29;20531;-83
2022/10/17 02:16:01;;;;;;;13.88;4.95;;;;;;;13.23;47.79;102113.84;4904237;29;20050;-83
2022/10/17 02:18:43;;;;;;;14.82;5.57;;;;;;;13.25;47.66;102114.59;4954756;29;20094;-81
2022/10/17 02:21:22;;;;;;;;;;;;;;;13.17;47.72;102116.97;4955574;29;20031;-82
2022/10/17 02:24:13;;;;;;;12.60;5.50;;;;;;;12.71;48.33;102043.59;4954712;29;19915;-82
2022/10/17 02:26:49;;;;;;;18.33;5.45;;;;;;;13.11;48.29;102124.63;4913097;29;20493;-81
2022/10/17 02:29:41;;;;;;;21.85;6.90;;;;;;;13.10;48.01;102123.75;4914631;29;20044;-82
2022/10/17 02:32:15;;;;;;;13.05;5.40;;;;;;;12.98;47.98;102086.75;4914990;29;20101;-83
2022/10/17 02:34:51;;;;;;;13.35;5.85;;;;;;;12.88;47.86;102081.09;4915445;29;20036;-82
2022/10/17 02:37:22;;;;;;;21.67;5.60;;;;;;;12.87;47.94;102089.31;4915987;29;20412;-84
2022/10/17 02:39:49;;;;;;;9.07;5.28;;;;;;;13.11;47.66;102125.50;4915481;29;20217;-82
2022/10/17 02:42:16;;;;;;;19.83;6.00;;;;;;;13.12;47.79;102131.78;4915102;29;20028;-82
2022/10/17 02:44:43;;;;;;;21.77;5.72;;;;;;;13.18;47.62;102136.75;4935147;29;20032;-89
2022/10/17 02:47:26;;;;;;;18.10;5.78;;;;;;;12.98;47.78;102102.94;4937361;29;20086;-85
2022/10/17 02:49:55;;;;;;;9.23;5.03;;;;;;;13.21;48.16;102137.38;4930705;29;20044;-81
2022/10/17 02:52:37;;;;;;;13.13;5.18;;;;;;;12.74;47.84;102051.47;4897599;29;20068;-81
2022/10/17 02:55:10;;;;;;;20.60;5.65;;;;;;;13.31;48.12;102134.91;4912990;29;20504;-82
2022/10/17 02:57:43;;;;;;;18.92;6.47;;;;;;;13.14;48.13;102103.66;4914128;29;20040;-81
2022/10/17 03:00:10;;;;;;;13.13;5.07;;;;;;;13.19;48.12;102108.75;4912763;29;20200;-82
2022/10/17 03:02:45;;;;;;;19.05;6.30;;;;;;;13.02;48.47;102089.13;4904535;29;20051;-82
2022/10/17 03:05:13;;;;;;;21.38;6.50;;;;;;;13.00;48.65;102096.47;4953017;29;20034;-81
2022/10/17 03:07:39;;;;;;;17.00;4.78;;;;;;;13.05;48.72;102110.53;4953733;28;20189;-81
2022/10/17 03:10:05;;;;;;;12.25;5.05;;;;;;;12.90;48.86;102089.09;4954120;28;20498;-81
2022/10/17 03:12:30;;;;;;;21.48;6.40;;;;;;;13.09;48.67;102108.50;4952273;29;20023;-82
2022/10/17 03:14:56;;;;;;;19.55;6.35;;;;;;;13.22;48.70;102127.44;4953552;28;20487;-81
2022/10/17 03:17:21;;;;;;;17.30;5.72;;;;;;;13.23;48.67;102130.06;4955177;28;20034;-82
2022/10/17 03:19:46;;;;;;;12.90;5.85;;;;;;;13.29;48.32;102153.09;4955194;28;20117;-84
2022/10/17 03:22:12;;;;;;;18.92;6.22;;;;;;;13.37;48.13;102150.72;4955007;28;20027;-82
2022/10/17 03:24:37;;;;;;;23.02;5.78;;;;;;;13.37;47.90;102148.00;4956525;28;20027;-83
2022/10/17 03:27:03;;;;;;;12.27;6.03;;;;;;;13.29;48.21;102129.63;4958713;28;20613;-82
2022/10/17 03:29:28;;;;;;;17.75;6.95;;;;;;;13.40;47.94;102142.38;4954836;29;20558;-88
2022/10/17 03:31:54;;;;;;;14.48;5.45;;;;;;;13.43;48.11;102136.78;4953689;28;20039;-83
2022/10/17 03:34:19;;;;;;;18.60;5.18;;;;;;;12.87;48.09;102027.22;4954095;28;20403;-82
2022/10/17 03:36:45;;;;;;;37.42;5.55;;;;;;;13.39;47.97;102110.94;4953918;28;20089;-83
2022/10/17 03:39:11;;;;;;;43.30;6.20;;;;;;;13.28;47.82;102083.78;4954556;28;20476;-81
2022/10/17 03:41:37;;;;;;;27.65;5.80;;;;;;;13.04;47.74;102033.16;4952851;29;20411;-83
2022/10/17 03:44:02;;;;;;;18.85;5.18;;;;;;;13.70;47.93;102151.06;4953518;29;20055;-82
2022/10/17 03:46:28;;;;;;;24.52;6.05;;;;;;;12.91;48.07;102005.28;4954929;28;20038;-83
2022/10/17 03:48:54;;;;;;;34.30;6.63;;;;;;;13.23;48.05;102045.44;4955047;28;20047;-81
2022/10/17 03:51:19;;;;;;;12.48;5.68;;;;;;;13.50;48.08;102089.44;4955554;28;20042;-82
2022/10/17 03:53:45;;;;;;;19.00;5.88;;;;;;;13.26;48.49;102047.91;4955334;28;20191;-82
2022/10/17 03:56:17;;;;;;;15.48;5.22;;;;;;;13.59;48.25;102108.56;4955708;29;20034;-82
2022/10/17 03:58:43;;;;;;;23.15;6.82;;;;;;;13.43;48.59;102078.19;4963668;28;20042;-84
2022/10/17 04:01:11;;;;;;;13.13;4.68;;;;;;;13.87;48.60;102158.88;4971822;28;20035;-82
2022/10/17 04:03:37;;;;;;;19.35;5.78;;;;;;;13.81;48.77;102131.38;4970542;28;20031;-85
2022/10/17 04:06:03;;;;;;;23.40;5.07;;;;;;;13.79;49.00;102136.88;4967004;28;20035;-80
2022/10/17 04:08:30;;;;;;;25.42;6.15;;;;;;;13.66;48.30;102111.72;4959840;28;20035;-81
2022/10/17 04:11:03;;;;;;;12.95;4.88;;;;;;;13.86;48.87;102140.91;4959042;28;20031;-83
2022/10/17 04:13:29;;;;;;;22.30;4.82;;;;;;;13.61;48.95;102100.34;4957334;28;20121;-83
2022/10/17 04:15:57;;;;;;;18.90;5.72;;;;;;;13.87;48.70;102142.66;4959380;28;20031;-87
2022/10/17 04:18:23;;;;;;;32.90;5.68;;;;;;;13.54;48.85;102082.84;4960082;29;20500;-82
2022/10/17 04:20:48;;;;;;;56.50;7.28;;;;;;;13.94;48.78;102160.16;4958262;28;20034;-79
2022/10/17 04:23:14;;;;;;;41.28;6.70;;;;;;;13.96;48.75;102155.50;4958426;28;20027;-80
2022/10/17 04:25:43;;;;;;;38.47;6.85;;;;;;;14.01;48.54;102172.28;4958560;29;20086;-82
2022/10/17 04:28:08;;;;;;;75.07;7.93;;;;;;;14.03;48.77;102175.75;4956445;28;20478;-85
2022/10/17 04:30:34;;;;;;;26.65;5.43;;;;;;;14.01;48.48;102172.28;4952953;28;20031;-80
2022/10/17 04:32:59;;;;;;;61.75;8.13;;;;;;;13.76;47.72;102111.94;4954427;28;20051;-81
2022/10/17 04:35:25;;;;;;;22.23;5.80;;;;;;;13.72;47.40;102122.09;4953687;29;20122;-79
2022/10/17 04:37:50;;;;;;;34.90;4.80;;;;;;;13.85;47.48;102155.38;4954407;29;20467;-78
2022/10/17 04:40:16;;;;;;;37.17;8.00;;;;;;;13.94;47.41;102172.84;4952753;28;20459;-82
2022/10/17 04:42:41;;;;;;;32.90;6.20;;;;;;;13.93;47.49;102174.66;4953170;28;20526;-78
2022/10/17 04:45:07;;;;;;;79.20;7.80;;;;;;;13.71;47.46;102136.59;4953676;28;20450;-78
2022/10/17 04:47:33;;;;;;;89.45;9.63;;;;;;;13.72;47.68;102154.53;4954002;28;20055;-78
2022/10/17 04:49:58;;;;;;;27.50;6.35;;;;;;;13.74;47.67;102151.72;4953804;28;20027;-78
2022/10/17 04:52:24;;;;;;;45.40;6.63;;;;;;;13.99;47.87;102206.69;4953306;28;20110;-79
2022/10/17 04:54:50;;;;;;;187.93;16.45;;;;;;;13.87;47.82;102182.34;4953328;28;20079;-79
2022/10/17 04:57:16;;;;;;;22.30;6.47;;;;;;;13.84;47.84;102185.25;4953696;28;20110;-78
2022/10/17 04:59:41;;;;;;;17.23;5.28;;;;;;;13.85;47.98;102187.84;4953869;28;20488;-82
2022/10/17 05:02:07;;;;;;;57.83;6.22;;;;;;;13.66;47.95;102168.50;4953553;28;20031;-79
2022/10/17 05:04:32;;;;;;;66.35;6.55;;;;;;;13.65;48.08;102180.28;4953894;28;20086;-79
2022/10/17 05:06:58;;;;;;;164.73;13.40;;;;;;;13.72;48.18;102186.13;4955112;28;20023;-80
2022/10/17 05:09:23;;;;;;;51.58;12.98;;;;;;;13.79;48.09;102196.38;4955471;28;20032;-79
2022/10/17 05:11:49;;;;;;;35.80;5.78;;;;;;;13.83;47.92;102202.44;4955512;28;20090;-81
2022/10/17 05:14:15;;;;;;;52.13;7.55;;;;;;;13.92;47.90;102210.78;4967906;28;20059;-83
2022/10/17 05:16:40;;;;;;;34.60;5.60;;;;;;;13.62;48.08;102178.66;4976884;28;20042;-85
2022/10/17 05:19:06;;;;;;;104.40;8.88;;;;;;;13.84;48.03;102221.28;4976794;28;20027;-86
2022/10/17 05:21:32;;;;;;;17.45;4.90;;;;;;;13.83;47.94;102221.38;4955329;28;20118;-81
2022/10/17 05:23:57;;;;;;;29.98;6.20;;;;;;;13.64;48.23;102186.66;4953092;28;20039;-80
2022/10/17 05:26:23;;;;;;;36.95;5.68;;;;;;;13.72;48.50;102208.63;4952201;28;20198;-79
2022/10/17 05:28:51;;;;;;;18.70;5.28;;;;;;;13.71;48.66;102198.78;4953087;28;20114;-79
2022/10/17 05:31:17;;;;;;;56.20;6.05;;;;;;;13.84;48.73;102215.88;4953578;29;20460;-80
2022/10/17 05:33:43;;;;;;;16.67;5.20;;;;;;;14.08;48.44;102249.34;4969306;28;20458;-81
2022/10/17 05:36:08;;;;;;;16.60;5.07;;;;;;;14.15;48.54;102256.06;4969661;28;20034;-81
2022/10/17 05:38:34;;;;;;;39.13;5.32;;;;;;;14.20;48.66;102261.13;4971029;28;20125;-83
2022/10/17 05:41:02;;;;;;;14.60;3.88;;;;;;;14.24;48.93;102264.50;4972105;28;20031;-79
2022/10/17 05:43:27;;;;;;;30.83;5.57;;;;;;;13.93;49.26;102208.97;4939932;29;20146;-85
2022/10/17 05:45:53;;;;;;;25.35;4.53;;;;;;;14.19;49.62;102252.13;4930989;29;20146;-79
2022/10/17 05:48:19;;;;;;;31.02;5.63;;;;;;;14.28;49.81;102255.19;4931120;29;20127;-80
2022/10/17 05:50:44;;;;;;;113.05;10.73;;;;;;;14.11;50.01;102222.06;4931030;29;20058;-82
2022/10/17 05:53:10;;;;;;;46.00;6.03;;;;;;;14.36;49.79;102258.25;4931078;29;20724;-78
2022/10/17 05:55:35;;;;;;;61.35;7.65;;;;;;;14.18;49.73;102225.19;4931168;29;20146;-80
2022/10/17 05:58:01;;;;;;;19.10;5.80;;;;;;;14.15;50.26;102222.72;4931655;29;20579;-80
2022/10/17 06:00:27;;;;;;;47.50;5.80;;;;;;;14.39;50.96;102260.72;4930846;29;20122;-80
2022/10/17 06:02:52;;;;;;;44.08;6.38;;;;;;;14.36;50.79;102242.00;4931849;29;20038;-80
2022/10/17 06:05:18;;;;;;;19.98;7.18;;;;;;;14.71;51.09;102298.03;4932420;29;20447;-78
2022/10/17 06:07:43;;;;;;;18.45;4.95;;;;;;;14.56;51.29;102261.25;4933589;29;20027;-81
2022/10/17 06:10:11;;;;;;;31.25;8.70;;;;;;;14.73;51.21;102268.16;4933134;29;20115;-79
2022/10/17 06:12:38;;;;;;;20.73;5.35;;;;;;;14.98;51.22;102289.75;4933694;29;20039;-80
2022/10/17 06:15:03;;;;;;;116.63;11.80;;;;;;;14.80;52.45;102239.63;4934117;29;20027;-77
2022/10/17 06:17:29;;;;;;;83.95;9.30;;;;;;;15.14;52.70;102301.19;4935035;29;20028;-79
2022/10/17 06:19:56;;;;;;;39.88;5.82;;;;;;;15.07;52.58;102262.00;4935556;29;20028;-81
2022/10/17 06:22:21;;;;;;;24.70;5.47;;;;;;;15.06;53.01;102249.41;4938359;29;20102;-81
2022/10/17 06:24:46;;;;;;;28.27;6.93;;;;;;;14.97;53.55;102223.00;4937918;29;20476;-81
2022/10/17 06:27:12;;;;;;;85.05;7.75;;;;;;;15.50;53.96;102305.78;4942714;29;20024;-88
2022/10/17 06:29:38;;;;;;;65.93;8.20;;;;;;;15.36;53.84;102265.22;4962433;28;20023;-85
2022/10/17 06:32:04;;;;;;;116.68;9.88;;;;;;;15.48;54.23;102277.00;4976236;28;20023;-86
2022/10/17 06:34:29;;;;;;;40.92;7.35;;;;;;;15.68;54.62;102298.94;4961593;28;20114;-83
2022/10/17 06:36:54;;;;;;;73.00;8.88;;;;;;;15.68;54.44;102284.50;4951132;29;20031;-80
2022/10/17 06:39:20;;;;;;;45.42;5.95;;;;;;;15.87;54.80;102313.81;4951756;29;20611;-81
2022/10/17 06:41:45;;;;;;;23.08;6.40;;;;;;;15.74;55.38;102278.63;4949048;29;20043;-80
2022/10/17 06:44:11;;;;;;;24.13;7.18;;;;;;;15.74;55.20;102268.63;4949083;29;20035;-82
2022/10/17 06:46:39;;;;;;;20.83;6.63;;;;;;;16.05;55.89;102283.41;4949155;29;20054;-82
2022/10/17 06:49:06;;;;;;;23.02;7.40;;;;;;;16.14;56.28;102298.09;4949294;29;20449;-81
2022/10/17 06:51:35;;;;;;;37.35;8.02;;;;;;;16.33;56.20;102304.66;4949172;29;20067;-82
2022/10/17 06:54:00;;;;;;;49.70;8.65;;;;;;;16.11;56.57;102250.34;4948938;29;20051;-81
2022/10/17 06:56:26;;;;;;;28.63;7.03;;;;;;;16.49;56.56;102309.75;4933334;29;20057;-81
2022/10/17 06:58:51;;;;;;;58.50;10.52;;;;;;;16.52;56.40;102304.06;4933798;29;20034;-79
2022/10/17 07:01:17;;;;;;;21.02;5.45;;;;;;;16.71;56.61;102330.66;4932517;29;20046;-83
2022/10/17 07:03:46;;;;;;;14.88;5.57;;;;;;;16.71;56.70;102298.94;4934316;29;20086;-80
2022/10/17 07:06:13;;;;;;;35.28;8.32;;;;;;;16.79;56.69;102298.28;4949677;29;20484;-82
2022/10/17 07:08:43;;;;;;;61.15;6.20;;;;;;;16.96;56.28;102300.53;4949586;29;20063;-83
2022/10/17 07:11:16;;;;;;;118.00;12.23;;;;;;;16.97;56.36;102293.25;4949271;29;20928;-79
2022/10/17 07:13:42;;;;;;;58.60;10.27;;;;;;;17.25;55.95;102317.16;4951141;29;20043;-79
2022/10/17 07:16:08;;;;;;;15.85;5.55;;;;;;;17.40;55.55;102334.91;4929101;29;20384;-77
2022/10/17 07:18:33;;;;;;;113.95;11.93;;;;;;;17.31;55.08;102313.91;4929309;29;20083;-80
2022/10/17 07:21:00;;;;;;;15.50;6.82;;;;;;;17.14;54.95;102268.22;4929313;29;20040;-81
2022/10/17 07:23:25;;;;;;;19.58;5.68;;;;;;;17.55;55.03;102335.56;4929666;29;20762;-79
2022/10/17 07:25:51;;;;;;;21.02;5.47;;;;;;;17.38;54.71;102310.56;4930857;29;20071;-83
2022/10/17 07:28:17;;;;;;;36.47;5.82;;;;;;;17.41;54.48;102307.59;4931586;29;20476;-82
2022/10/17 07:30:43;;;;;;;22.48;5.03;;;;;;;17.58;54.41;102324.41;4931663;29;20032;-81
2022/10/17 07:33:09;;;;;;;16.83;6.10;;;;;;;17.60;54.02;102309.69;4933751;29;20028;-84
2022/10/17 07:35:39;;;;;;;16.42;4.97;;;;;;;17.53;54.23;102285.78;4933696;29;20040;-81
2022/10/17 07:38:05;;;;;;;21.75;5.93;;;;;;;17.89;54.20;102320.78;4934075;29;20060;-82
2022/10/17 07:40:30;;;;;;;94.60;12.57;;;;;;;17.73;53.66;102265.97;4922297;29;20051;-85
2022/10/17 07:42:55;;;;;;;119.70;18.17;;;;;;;17.80;53.71;102267.13;4953732;29;20047;-88
2022/10/17 07:45:22;;;;;;;58.83;8.05;;;;;;;18.10;53.74;102308.09;4954220;28;20052;-85
2022/10/17 07:47:48;;;;;;;11.25;4.68;;;;;;;18.27;53.33;102326.53;4940257;29;20143;-84
2022/10/17 07:50:14;;;;;;;18.77;5.53;;;;;;;18.45;53.39;102337.69;4928650;29;20038;-84
2022/10/17 07:52:42;;;;;;;8.70;4.88;;;;;;;18.06;53.25;102252.16;4931555;29;20046;-81
2022/10/17 07:55:08;;;;;;;19.77;4.80;;;;;;;18.65;52.75;102327.81;4950015;28;20051;-82
2022/10/17 07:57:33;;;;;;;25.45;4.65;;;;;;;18.74;52.28;102335.16;4950641;28;20035;-82
2022/10/17 07:59:59;;;;;;;30.05;5.20;;;;;;;18.66;52.24;102303.13;4950408;28;20487;-82
2022/10/17 08:02:26;;;;;;;13.40;4.20;;;;;;;18.89;51.96;102323.75;4950380;28;20034;-81
2022/10/17 08:04:52;;;;;;;931.70;101.50;;;;;;;18.60;51.56;102278.28;4950512;28;20055;-88
2022/10/17 08:07:18;;;;;;;20.85;4.45;;;;;;;18.73;51.24;102290.69;4948892;29;20652;-82
2022/10/17 08:09:44;;;;;;;60.72;7.82;;;;;;;18.81;51.38;102304.47;4964919;28;20066;-80
2022/10/17 08:12:11;;;;;;;35.40;6.57;;;;;;;18.97;51.64;102328.50;4950164;28;20023;-82
2022/10/17 08:14:38;;;;;;;32.72;5.68;;;;;;;18.76;51.83;102290.41;4950490;28;20040;-83
2022/10/17 08:17:03;;;;;;;142.13;9.07;;;;;;;18.67;51.29;102290.38;4950221;28;20027;-82
2022/10/17 08:19:29;;;;;;;42.92;7.05;;;;;;;18.92;51.35;102325.34;4950791;29;20118;-85
2022/10/17 08:21:54;;;;;;;42.92;8.80;;;;;;;19.01;51.49;102321.78;4950014;28;20693;-84
2022/10/17 08:24:19;;;;;;;62.90;8.43;;;;;;;18.60;51.35;102240.13;4950486;28;20038;-87
2022/10/17 08:26:45;;;;;;;43.72;9.07;;;;;;;19.03;50.84;102277.00;4948913;29;20089;-85
2022/10/17 08:29:15;;;;;;;146.25;19.40;;;;;;;19.20;50.59;102286.41;4950336;28;20039;-82
2022/10/17 08:31:40;;;;;;;71.82;8.90;;;;;;;19.53;49.71;102324.25;4950540;29;20111;-81
2022/10/17 08:34:06;;;;;;;52.13;6.82;;;;;;;19.36;50.15;102327.63;4949178;29;20114;-82
2022/10/17 08:36:32;;;;;;;88.47;10.27;;;;;;;19.44;50.16;102336.03;4931190;29;20032;-80
2022/10/17 08:38:57;;;;;;;24.80;5.72;;;;;;;19.42;50.27;102335.28;4930779;29;20439;-79
2022/10/17 08:41:28;;;;;;;26.38;6.45;;;;;;;19.39;50.27;102335.56;4930882;29;20024;-79
2022/10/17 08:44:05;;;;;;;123.63;11.90;;;;;;;19.37;50.62;102345.72;4931458;29;20039;-79
2022/10/17 08:46:37;;;;;;;51.10;8.70;;;;;;;19.31;50.33;102324.47;4932864;29;20059;-79
2022/10/17 08:49:11;;;;;;;26.85;5.50;;;;;;;19.51;50.21;102345.34;4932686;29;20368;-79
2022/10/17 08:51:50;;;;;;;24.20;5.13;;;;;;;19.54;49.79;102346.94;4932852;29;20038;-79
2022/10/17 08:54:25;;;;;;;32.03;5.90;;;;;;;19.45;50.15;102343.19;4943801;29;20063;-84
2022/10/17 08:56:54;;;;;;;19.85;4.88;;;;;;;19.35;49.90;102330.50;4958377;29;20043;-84
2022/10/17 08:59:24;;;;;;;95.15;11.30;;;;;;;19.38;50.25;102336.56;4957645;29;20031;-82
2022/10/17 09:02:11;;;;;;;36.97;6.30;;;;;;;19.43;50.28;102347.94;4938844;29;20043;-81
2022/10/17 09:04:37;;;;;;;50.63;7.35;;;;;;;19.53;50.16;102339.75;4933797;29;20044;-81
2022/10/17 09:07:08;;;;;;;25.63;4.93;;;;;;;19.52;49.99;102346.22;4934026;29;20507;-79
2022/10/17 09:09:33;;;;;;;26.73;7.20;;;;;;;19.50;50.11;102351.84;4933908;29;20050;-80
2022/10/17 09:12:37;;;;;;;22.88;7.10;;;;;;;19.43;50.38;102347.94;4934139;29;20031;-79
2022/10/17 09:15:33;;;;;;;22.33;7.63;;;;;;;19.30;50.73;102355.47;4893297;29;20512;-80
2022/10/17 09:18:10;;;;;;;72.78;10.60;;;;;;;19.17;50.59;102338.50;4877289;29;20356;-80
2022/10/17 09:20:41;;;;;;;169.60;16.80;;;;;;;19.21;50.83;102348.13;4893296;29;20511;-79
2022/10/17 09:23:17;;;;;;;30.17;4.72;;;;;;;19.31;50.77;102354.47;4892957;29;20072;-79
2022/10/17 09:25:48;;;;;;;18.92;4.45;;;;;;;19.25;50.88;102352.31;4892826;29;20032;-82
2022/10/17 09:28:20;;;;;;;15.57;4.25;;;;;;;19.26;50.68;102351.31;4893280;29;20040;-82
2022/10/17 09:30:57;;;;;;;44.95;5.90;;;;;;;19.36;50.51;102346.72;4894345;29;20386;-79
2022/10/17 09:33:41;;;;;;;12.52;4.93;;;;;;;19.44;50.25;102340.63;4894533;29;20036;-81
2022/10/17 09:36:16;;;;;;;42.70;7.97;;;;;;;19.59;49.06;102349.25;4894193;29;20046;-80
2022/10/17 09:38:46;;;;;;;35.75;5.10;;;;;;;19.54;48.94;102347.81;4877904;29;20072;-79
2022/10/17 09:41:29;;;;;;;10.23;3.58;;;;;;;19.31;49.15;102319.00;4893602;29;20072;-83
2022/10/17 09:44:08;;;;;;;14.02;4.03;;;;;;;19.42;49.51;102343.47;4893918;29;20477;-81
2022/10/17 09:46:37;;;;;;;26.10;4.97;;;;;;;19.46;49.43;102338.59;4893799;29;20815;-80
2022/10/17 09:49:11;;;;;;;43.20;7.40;;;;;;;19.30;49.55;102314.53;4923564;29;20058;-79
2022/10/17 09:51:38;;;;;;;22.90;5.07;;;;;;;19.58;49.65;102336.59;4953572;29;20030;-80
2022/10/17 09:54:15;;;;;;;120.13;9.57;;;;;;;19.53;49.09;102318.81;4953159;29;20787;-81
2022/10/17 09:57:01;;;;;;;18.92;6.70;;;;;;;19.66;49.09;102337.63;4953182;28;20027;-82
2022/10/17 09:59:34;;;;;;;11.30;4.82;;;;;;;19.62;49.35;102328.00;4954343;28;20027;-79
2022/10/17 10:02:11;;;;;;;19.00;5.75;;;;;;;19.85;49.04;102345.81;4955248;29;20135;-80
2022/10/17 10:05:04;;;;;;;16.00;5.90;;;;;;;19.96;48.54;102325.72;4955152;28;20032;-81
2022/10/17 10:07:35;;;;;;;34.58;7.20;;;;;;;20.10;48.11;102331.59;4957420;29;20498;-81
2022/10/17 10:10:03;;;;;;;476.77;48.63;;;;;;;20.08;48.08;102327.28;4977431;29;20027;-84
2022/10/17 10:12:37;;;;;;;46.88;6.97;;;;;;;20.23;47.77;102334.03;4977804;28;20051;-81
2022/10/17 10:15:33;;;;;;;179.30;17.30;;;;;;;20.22;47.52;102325.97;4966365;28;20035;-81
2022/10/17 10:17:59;;;;;;;276.67;20.70;;;;;;;20.38;47.54;102320.78;4911797;29;20119;-80
2022/10/17 10:20:45;;;;;;;43.50;5.30;;;;;;;20.13;47.10;102243.00;4909228;29;20500;-83
2022/10/17 10:23:17;;;;;;;137.50;17.20;;;;;;;20.67;46.71;102307.06;4911150;29;20055;-81
2022/10/17 10:26:17;;;;;;;136.47;14.33;;;;;;;20.90;46.02;102328.41;4910729;29;20044;-80
2022/10/17 10:28:51;;;;;;;49.83;6.57;;;;;;;20.84;45.68;102320.78;4873586;29;20072;-81
2022/10/17 10:31:42;;;;;;;113.75;14.38;;;;;;;20.66;45.40;102286.19;4873568;29;20036;-81
2022/10/17 10:34:21;;;;;;;375.65;29.02;;;;;;;20.53;45.23;102295.56;4873051;29;20505;-80
2022/10/17 10:36:59;;;;;;;142.07;19.20;;;;;;;20.70;45.40;102320.44;4872743;29;20821;-80
2022/10/17 10:39:46;;;;;;;54.88;7.57;;;;;;;20.68;45.63;102314.22;4872800;29;20053;-82
2022/10/17 10:42:26;;;;;;;76.00;9.20;;;;;;;20.75;45.70;102312.63;4872543;29;20719;-80
2022/10/17 10:44:54;;;;;;;11.25;4.40;;;;;;;20.74;45.67;102311.75;4872723;29;20049;-80
2022/10/17 10:47:26;;;;;;;47.47;5.75;;;;;;;20.67;45.08;102302.44;4872964;29;20033;-82
2022/10/17 10:50:25;;;;;;;91.07;9.90;;;;;;;20.73;44.92;102303.72;4872953;29;20120;-81
2022/10/17 10:53:12;;;;;;;16.45;5.43;;;;;;;20.83;45.01;102307.25;4872553;29;20432;-80
2022/10/17 10:55:52;;;;;;;55.83;7.97;;;;;;;20.70;45.41;102276.66;4887562;29;20211;-79
2022/10/17 10:58:35;;;;;;;307.92;22.45;;;;;;;20.93;45.52;102297.13;4891346;29;20032;-81
2022/10/17 11:01:10;;;;;;;49.05;5.05;;;;;;;20.76;45.48;102262.41;4891570;29;20108;-79
2022/10/17 11:03:48;;;;;;;99.68;8.73;;;;;;;21.14;44.84;102292.28;4891470;29;20161;-81
2022/10/17 11:06:22;;;;;;;92.63;18.05;;;;;;;21.32;44.56;102284.97;4951667;29;20058;-84
2022/10/17 11:08:58;;;;;;;25.95;5.68;;;;;;;21.40;44.90;102265.94;4951047;29;20035;-83
2022/10/17 11:11:37;;;;;;;27.42;7.82;;;;;;;21.55;45.81;102302.69;4952892;28;20031;-78
2022/10/17 11:14:10;;;;;;;66.28;6.93;;;;;;;21.59;45.89;102286.78;4954356;28;20031;-82
2022/10/17 11:16:41;;;;;;;231.20;16.88;;;;;;;21.57;45.51;102299.78;4956045;28;20035;-84
2022/10/17 11:19:27;;;;;;;27.45;5.93;;;;;;;21.47;44.34;102245.09;4956490;28;20113;-82
2022/10/17 11:22:07;;;;;;;20.98;3.92;;;;;;;21.91;44.95;102297.22;4961623;28;20023;-89
2022/10/17 11:24:56;;;;;;;92.47;7.82;;;;;;;22.18;44.38;102278.78;4974515;28;20038;-84
2022/10/17 11:27:26;;;;;;;33.13;5.00;;;;;;;22.23;43.89;102279.16;4975165;28;20062;-91
2022/10/17 11:29:52;;;;;;;45.10;8.45;;;;;;;21.90;42.42;102216.91;4953778;29;20059;-81
2022/10/17 11:32:29;;;;;;;486.88;35.17;;;;;;;22.24;44.11;102255.34;4952114;29;20117;-81